createdAt,value
2023-05-01T00:01:32.933Z,99.90
2023-05-01T00:03:59.828Z,99.90
2023-05-01T00:06:28.274Z,99.90
2023-05-01T00:08:55.143Z,99.90
2023-05-01T00:11:22.300Z,99.90
2023-05-01T00:13:49.087Z,99.90
2023-05-01T00:16:17.623Z,99.90
2023-05-01T00:18:44.708Z,99.90
2023-05-01T00:21:11.521Z,99.90
2023-05-01T00:23:38.336Z,99.90
2023-05-01T00:26:05.086Z,99.90
2023-05-01T00:28:32.895Z,99.90
2023-05-01T00:30:59.625Z,99.90
2023-05-01T00:33:26.445Z,99.90
2023-05-01T00:35:54.449Z,99.90
2023-05-01T00:38:21.258Z,99.90
2023-05-01T00:40:48.045Z,99.90
2023-05-01T00:43:14.898Z,99.90
2023-05-01T00:45:41.635Z,99.90
2023-05-01T00:48:11.534Z,99.90
2023-05-01T00:50:38.234Z,99.90
2023-05-01T00:53:04.928Z,99.90
2023-05-01T00:55:31.597Z,99.90
2023-05-01T00:57:58.459Z,99.90
2023-05-01T01:00:25.274Z,99.90
2023-05-01T01:02:52.257Z,99.90
2023-05-01T01:05:21.469Z,99.90
2023-05-01T01:07:50.595Z,99.90
2023-05-01T01:10:18.536Z,99.90
2023-05-01T01:12:48.196Z,99.90
2023-05-01T01:15:15.961Z,99.90
2023-05-01T01:17:42.734Z,99.90
2023-05-01T01:20:09.652Z,99.90
2023-05-01T01:22:36.444Z,99.90
2023-05-01T01:25:06.425Z,99.90
2023-05-01T01:27:33.349Z,99.90
2023-05-01T01:30:00.034Z,99.90
2023-05-01T01:32:27.018Z,99.90
2023-05-01T01:34:53.726Z,99.90
2023-05-01T01:37:20.452Z,99.90
2023-05-01T01:39:47.372Z,99.90
2023-05-01T01:42:14.095Z,99.90
2023-05-01T01:44:40.841Z,99.90
2023-05-01T01:47:07.582Z,99.90
2023-05-01T01:49:34.261Z,99.90
2023-05-01T01:52:01.335Z,99.90
2023-05-01T01:54:28.209Z,99.90
2023-05-01T01:56:55.037Z,99.90
2023-05-01T01:59:21.829Z,99.90
2023-05-01T02:01:48.698Z,99.90
2023-05-01T02:04:15.494Z,99.90
2023-05-01T02:06:45.310Z,99.90
2023-05-01T02:09:14.739Z,99.90
2023-05-01T02:11:41.540Z,99.90
2023-05-01T02:14:09.316Z,99.90
2023-05-01T02:16:36.201Z,99.90
2023-05-01T02:19:04.048Z,99.90
2023-05-01T02:21:32.518Z,99.90
2023-05-01T02:23:59.286Z,99.90
2023-05-01T02:26:27.701Z,99.90
2023-05-01T02:28:54.836Z,99.90
2023-05-01T02:31:23.209Z,99.90
2023-05-01T02:33:50.111Z,99.90
2023-05-01T02:36:16.921Z,99.90
2023-05-01T02:38:43.872Z,99.90
2023-05-01T02:41:10.618Z,99.90
2023-05-01T02:43:37.389Z,99.90
2023-05-01T02:46:04.864Z,99.90
2023-05-01T02:48:31.655Z,99.90
2023-05-01T02:51:00.128Z,99.90
2023-05-01T02:53:27.126Z,99.90
2023-05-01T02:55:53.818Z,99.90
2023-05-01T02:58:20.762Z,99.90
2023-05-01T03:00:47.553Z,99.90
2023-05-01T03:03:14.588Z,99.90
2023-05-01T03:05:43.975Z,99.90
2023-05-01T03:08:11.426Z,99.90
2023-05-01T03:10:40.349Z,99.90
2023-05-01T03:13:07.142Z,99.90
2023-05-01T03:15:38.906Z,99.90
2023-05-01T03:18:05.647Z,99.90
2023-05-01T03:20:32.485Z,99.90
2023-05-01T03:22:59.552Z,99.90
2023-05-01T03:25:26.317Z,99.90
2023-05-01T03:27:54.926Z,99.90
2023-05-01T03:30:21.998Z,99.90
2023-05-01T03:32:48.757Z,99.90
2023-05-01T03:35:17.993Z,99.90
2023-05-01T03:37:44.746Z,99.90
2023-05-01T03:40:13.812Z,99.90
2023-05-01T03:42:40.617Z,99.90
2023-05-01T03:45:07.618Z,99.90
2023-05-01T03:47:34.757Z,99.90
2023-05-01T03:50:02.069Z,99.90
2023-05-01T03:52:28.807Z,99.90
2023-05-01T03:54:55.542Z,99.90
2023-05-01T03:57:23.401Z,99.90
2023-05-01T03:59:50.287Z,99.90
2023-05-01T04:02:17.168Z,99.90
2023-05-01T04:04:44.132Z,99.90
2023-05-01T04:07:10.802Z,99.90
2023-05-01T04:09:37.540Z,99.90
2023-05-01T04:12:04.295Z,99.90
2023-05-01T04:14:31.202Z,99.90
2023-05-01T04:16:57.914Z,99.90
2023-05-01T04:19:27.395Z,99.90
2023-05-01T04:21:55.259Z,99.90
2023-05-01T04:24:22.204Z,99.90
2023-05-01T04:26:48.974Z,99.90
2023-05-01T04:29:15.789Z,99.90
2023-05-01T04:31:43.480Z,99.90
2023-05-01T04:34:10.379Z,99.90
2023-05-01T04:36:37.284Z,99.90
2023-05-01T04:39:04.144Z,99.90
2023-05-01T04:41:31.002Z,99.90
2023-05-01T04:43:57.636Z,99.90
2023-05-01T04:46:24.580Z,99.90
2023-05-01T04:48:51.309Z,99.90
2023-05-01T04:51:18.104Z,99.90
2023-05-01T04:53:45.056Z,99.90
2023-05-01T04:56:11.734Z,99.90
2023-05-01T04:58:41.444Z,99.90
2023-05-01T05:01:08.227Z,99.90
2023-05-01T05:03:36.867Z,99.90
2023-05-01T05:06:05.808Z,99.90
2023-05-01T05:08:38.582Z,99.90
2023-05-01T05:11:05.320Z,99.90
2023-05-01T05:13:32.116Z,99.90
2023-05-01T05:15:58.921Z,99.90
2023-05-01T05:18:28.213Z,99.90
2023-05-01T05:20:56.673Z,99.90
2023-05-01T05:23:23.377Z,99.90
2023-05-01T05:25:50.236Z,99.90
2023-05-01T05:28:17.606Z,99.90
2023-05-01T05:30:44.384Z,99.90
2023-05-01T05:33:11.488Z,99.90
2023-05-01T05:35:38.188Z,99.90
2023-05-01T05:38:04.837Z,99.90
2023-05-01T05:40:31.467Z,99.90
2023-05-01T05:42:58.100Z,99.90
2023-05-01T05:45:24.713Z,99.90
2023-05-01T05:47:51.557Z,99.90
2023-05-01T05:50:18.213Z,99.90
2023-05-01T05:52:44.789Z,99.90
2023-05-01T05:55:11.551Z,99.90
2023-05-01T05:57:38.143Z,99.90
2023-05-01T06:00:09.639Z,99.90
2023-05-01T06:02:36.372Z,99.90
2023-05-01T06:05:03.139Z,99.90
2023-05-01T06:07:29.980Z,99.90
2023-05-01T06:10:01.757Z,99.90
2023-05-01T06:12:29.723Z,99.90
2023-05-01T06:14:56.931Z,99.90
2023-05-01T06:17:23.574Z,99.90
2023-05-01T06:19:52.498Z,99.90
2023-05-01T06:22:19.137Z,99.90
2023-05-01T06:24:46.285Z,99.90
2023-05-01T06:27:12.932Z,99.90
2023-05-01T06:29:39.531Z,99.90
2023-05-01T06:32:06.138Z,99.90
2023-05-01T06:34:32.773Z,99.90
2023-05-01T06:36:59.320Z,99.90
2023-05-01T06:39:25.946Z,99.90
2023-05-01T06:41:52.593Z,99.90
2023-05-01T06:44:19.267Z,99.90
2023-05-01T06:46:45.880Z,99.90
2023-05-01T06:49:12.616Z,99.90
2023-05-01T06:51:39.266Z,99.90
2023-05-01T06:54:05.961Z,99.90
2023-05-01T06:56:33.129Z,99.90
2023-05-01T06:58:59.988Z,99.90
2023-05-01T07:01:26.885Z,99.90
2023-05-01T07:03:53.544Z,99.90
2023-05-01T07:06:20.191Z,99.90
2023-05-01T07:08:46.856Z,99.90
2023-05-01T07:11:13.512Z,99.90
2023-05-01T07:13:40.070Z,99.90
2023-05-01T07:16:07.322Z,99.90
2023-05-01T07:18:34.948Z,99.90
2023-05-01T07:21:01.652Z,99.90
2023-05-01T07:23:28.385Z,99.90
2023-05-01T07:25:55.093Z,99.90
2023-05-01T07:28:22.895Z,99.90
2023-05-01T07:30:49.853Z,99.90
2023-05-01T07:33:16.772Z,99.90
2023-05-01T07:35:43.436Z,99.90
2023-05-01T07:38:10.421Z,99.90
2023-05-01T07:40:38.647Z,99.90
2023-05-01T07:43:05.486Z,99.90
2023-05-01T07:45:32.773Z,99.90
2023-05-01T07:47:59.869Z,99.90
2023-05-01T07:50:27.000Z,99.90
2023-05-01T07:52:56.745Z,99.90
2023-05-01T07:55:23.526Z,99.90
2023-05-01T07:57:50.638Z,99.90
2023-05-01T08:00:17.680Z,99.90
2023-05-01T08:02:44.616Z,99.90
2023-05-01T08:05:11.569Z,99.90
2023-05-01T08:07:38.353Z,99.90
2023-05-01T08:10:05.330Z,99.90
2023-05-01T08:12:34.948Z,99.90
2023-05-01T08:15:01.754Z,99.90
2023-05-01T08:17:28.601Z,99.90
2023-05-01T08:19:57.010Z,99.90
2023-05-01T08:22:23.923Z,99.90
2023-05-01T08:24:50.776Z,99.90
2023-05-01T08:27:17.585Z,99.90
2023-05-01T08:29:47.176Z,99.90
2023-05-01T08:32:14.044Z,99.90
2023-05-01T08:34:41.077Z,99.90
2023-05-01T08:37:07.940Z,99.90
2023-05-01T08:39:34.763Z,99.90
2023-05-01T08:42:01.491Z,99.90
2023-05-01T08:44:30.603Z,99.90
2023-05-01T08:46:58.090Z,99.90
2023-05-01T08:49:24.933Z,99.90
2023-05-01T08:51:52.814Z,99.90
2023-05-01T08:54:19.637Z,99.90
2023-05-01T08:56:46.569Z,99.90
2023-05-01T08:59:13.999Z,99.90
2023-05-01T09:01:40.805Z,99.90
2023-05-01T09:04:07.583Z,99.90
2023-05-01T09:06:34.656Z,99.90
2023-05-01T09:09:01.668Z,99.90
2023-05-01T09:11:28.409Z,99.90
2023-05-01T09:13:55.195Z,99.90
2023-05-01T09:16:22.038Z,99.90
2023-05-01T09:18:48.940Z,99.90
2023-05-01T09:21:15.771Z,99.90
2023-05-01T09:23:42.512Z,99.90
2023-05-01T09:26:09.260Z,99.90
2023-05-01T09:28:36.051Z,99.90
2023-05-01T09:31:02.752Z,99.90
2023-05-01T09:33:29.479Z,99.90
2023-05-01T09:35:56.260Z,99.90
2023-05-01T09:38:23.169Z,99.90
2023-05-01T09:40:49.858Z,99.90
2023-05-01T09:43:16.531Z,99.90
2023-05-01T09:45:43.293Z,99.90
2023-05-01T09:48:13.601Z,99.90
2023-05-01T09:50:42.415Z,99.90
2023-05-01T09:53:09.179Z,99.90
2023-05-01T09:55:36.533Z,99.90
2023-05-01T09:58:03.643Z,99.90
2023-05-01T10:00:30.426Z,99.90
2023-05-01T10:02:57.409Z,99.90
2023-05-01T10:05:24.729Z,99.90
2023-05-01T10:07:51.456Z,99.90
2023-05-01T10:10:18.402Z,99.90
2023-05-01T10:12:45.117Z,99.90
2023-05-01T10:15:24.872Z,99.90
2023-05-01T10:17:53.217Z,99.90
2023-05-01T10:20:19.988Z,99.90
2023-05-01T10:22:46.824Z,99.90
2023-05-01T10:25:13.482Z,99.90
2023-05-01T10:27:40.896Z,99.90
2023-05-01T10:30:07.560Z,99.90
2023-05-01T10:32:34.245Z,99.90
2023-05-01T10:35:01.056Z,99.90
2023-05-01T10:37:28.703Z,99.90
2023-05-01T10:39:55.496Z,99.90
2023-05-01T10:42:22.286Z,99.90
2023-05-01T10:44:49.725Z,99.90
2023-05-01T10:47:16.664Z,99.90
2023-05-01T10:49:43.310Z,99.90
2023-05-01T10:52:09.940Z,99.90
2023-05-01T10:54:36.690Z,99.90
2023-05-01T10:57:03.445Z,99.90
2023-05-01T10:59:30.060Z,99.90
2023-05-01T11:01:56.832Z,99.90
2023-05-01T11:04:27.526Z,99.90
2023-05-01T11:06:54.214Z,99.90
2023-05-01T11:09:21.471Z,99.20
2023-05-01T11:11:49.457Z,98.80
2023-05-01T11:14:16.073Z,97.60
2023-05-01T11:16:42.818Z,97.60
2023-05-01T11:19:09.929Z,97.20
2023-05-01T11:21:36.701Z,96.50
2023-05-01T11:24:03.739Z,97.30
2023-05-01T11:26:32.277Z,96.40
2023-05-01T11:28:59.229Z,95.70
2023-05-01T11:31:25.908Z,96.60
2023-05-01T11:33:52.537Z,95.90
2023-05-01T11:36:19.304Z,93.20
2023-05-01T11:38:46.138Z,92.20
2023-05-01T11:41:12.792Z,94.30
2023-05-01T11:43:39.473Z,92.60
2023-05-01T11:46:06.317Z,93.80
2023-05-01T11:48:33.027Z,92.30
2023-05-01T11:50:59.709Z,91.80
2023-05-01T11:53:26.384Z,91.80
2023-05-01T11:55:53.037Z,90.00
2023-05-01T11:58:19.755Z,84.40
2023-05-01T12:00:47.160Z,84.80
2023-05-01T12:03:14.417Z,83.20
2023-05-01T12:05:42.495Z,82.00
2023-05-01T12:08:09.820Z,83.50
2023-05-01T12:10:36.696Z,84.00
2023-05-01T12:13:03.446Z,86.00
2023-05-01T12:15:30.116Z,82.10
2023-05-01T12:17:56.885Z,85.00
2023-05-01T12:20:23.578Z,84.20
2023-05-01T12:22:50.598Z,84.60
2023-05-01T12:25:17.359Z,81.20
2023-05-01T12:27:44.003Z,83.40
2023-05-01T12:30:10.838Z,84.40
2023-05-01T12:32:37.668Z,85.20
2023-05-01T12:35:04.417Z,83.20
2023-05-01T12:37:31.185Z,82.50
2023-05-01T12:39:58.072Z,83.70
2023-05-01T12:42:24.650Z,86.60
2023-05-01T12:44:51.451Z,85.20
2023-05-01T12:47:18.104Z,85.00
2023-05-01T12:49:44.845Z,84.60
2023-05-01T12:52:11.564Z,84.30
2023-05-01T12:54:38.206Z,84.20
2023-05-01T12:57:04.841Z,83.80
2023-05-01T12:59:31.604Z,85.10
2023-05-01T13:01:59.098Z,89.10
2023-05-01T13:04:26.460Z,93.30
2023-05-01T13:06:56.146Z,95.90
2023-05-01T13:09:23.131Z,92.50
2023-05-01T13:11:49.799Z,92.70
2023-05-01T13:14:16.546Z,91.60
2023-05-01T13:16:43.374Z,91.20
2023-05-01T13:19:10.129Z,88.20
2023-05-01T13:21:36.857Z,82.50
2023-05-01T13:24:03.456Z,83.60
2023-05-01T13:26:31.223Z,84.00
2023-05-01T13:28:57.979Z,75.40
2023-05-01T13:31:24.709Z,77.30
2023-05-01T13:33:51.389Z,75.50
2023-05-01T13:36:26.270Z,72.80
2023-05-01T13:38:54.120Z,73.20
2023-05-01T13:41:20.874Z,71.50
2023-05-01T13:43:47.613Z,71.90
2023-05-01T13:46:15.338Z,71.40
2023-05-01T13:48:42.179Z,68.70
2023-05-01T13:51:09.526Z,70.10
2023-05-01T13:53:36.159Z,71.20
2023-05-01T13:56:02.922Z,70.60
2023-05-01T13:58:32.646Z,67.50
2023-05-01T14:00:59.318Z,63.80
2023-05-01T14:03:26.088Z,66.20
2023-05-01T14:05:52.742Z,67.60
2023-05-01T14:08:19.482Z,66.00
2023-05-01T14:10:46.488Z,67.60
2023-05-01T14:13:13.987Z,66.80
2023-05-01T14:15:44.020Z,67.10
2023-05-01T14:18:10.759Z,69.40
2023-05-01T14:20:37.530Z,66.20
2023-05-01T14:23:04.233Z,68.70
2023-05-01T14:25:31.557Z,68.00
2023-05-01T14:27:58.354Z,63.60
2023-05-01T14:30:26.386Z,63.00
2023-05-01T14:32:53.370Z,64.10
2023-05-01T14:35:20.085Z,64.80
2023-05-01T14:37:47.071Z,67.90
2023-05-01T14:40:13.777Z,66.30
2023-05-01T14:42:40.488Z,68.50
2023-05-01T14:45:07.132Z,68.80
2023-05-01T14:47:33.821Z,68.10
2023-05-01T14:50:00.551Z,69.90
2023-05-01T14:52:27.247Z,70.30
2023-05-01T14:54:53.919Z,70.70
2023-05-01T14:57:20.675Z,72.50
2023-05-01T14:59:47.362Z,72.20
2023-05-01T15:02:14.336Z,73.30
2023-05-01T15:04:41.185Z,74.30
2023-05-01T15:07:08.119Z,74.00
2023-05-01T15:09:35.012Z,73.50
2023-05-01T15:12:04.928Z,74.40
2023-05-01T15:14:32.826Z,74.90
2023-05-01T15:16:59.477Z,74.60
2023-05-01T15:19:26.273Z,75.30
2023-05-01T15:21:52.939Z,77.30
2023-05-01T15:24:19.763Z,77.00
2023-05-01T15:26:46.436Z,74.80
2023-05-01T15:29:13.198Z,74.40
2023-05-01T15:31:40.103Z,70.60
2023-05-01T15:34:06.773Z,71.20
2023-05-01T15:36:33.439Z,70.00
2023-05-01T15:39:00.257Z,67.50
2023-05-01T15:41:26.970Z,68.30
2023-05-01T15:43:54.916Z,69.80
2023-05-01T15:46:23.584Z,69.10
2023-05-01T15:48:50.384Z,69.30
2023-05-01T15:51:17.047Z,71.30
2023-05-01T15:53:44.173Z,70.60
2023-05-01T15:56:10.927Z,69.40
2023-05-01T15:58:37.665Z,72.10
2023-05-01T16:01:04.458Z,70.80
2023-05-01T16:03:32.038Z,68.30
2023-05-01T16:05:59.316Z,66.60
2023-05-01T16:08:25.969Z,65.20
2023-05-01T16:10:53.890Z,63.60
2023-05-01T16:13:20.617Z,61.70
2023-05-01T16:15:47.375Z,63.50
2023-05-01T16:18:14.044Z,62.00
2023-05-01T16:20:40.698Z,60.00
2023-05-01T16:23:08.620Z,60.00
2023-05-01T16:25:35.305Z,59.90
2023-05-01T16:28:01.924Z,58.30
2023-05-01T16:30:28.663Z,59.00
2023-05-01T16:32:55.462Z,60.20
2023-05-01T16:35:22.368Z,58.70
2023-05-01T16:37:48.956Z,59.90
2023-05-01T16:40:15.572Z,60.80
2023-05-01T16:42:42.474Z,61.90
2023-05-01T16:45:09.434Z,60.80
2023-05-01T16:47:36.291Z,61.00
2023-05-01T16:50:03.632Z,61.30
2023-05-01T16:52:30.556Z,65.80
2023-05-01T16:54:59.026Z,60.80
2023-05-01T16:57:25.679Z,59.00
2023-05-01T16:59:52.298Z,57.40
2023-05-01T17:02:18.946Z,57.70
2023-05-01T17:04:45.780Z,58.70
2023-05-01T17:07:12.502Z,56.70
2023-05-01T17:09:39.137Z,57.30
2023-05-01T17:12:06.183Z,56.80
2023-05-01T17:14:32.845Z,57.40
2023-05-01T17:16:59.503Z,57.00
2023-05-01T17:19:26.094Z,55.30
2023-05-01T17:21:52.687Z,55.20
2023-05-01T17:24:19.630Z,55.60
2023-05-01T17:26:46.759Z,58.30
2023-05-01T17:29:13.348Z,55.50
2023-05-01T17:31:39.954Z,57.00
2023-05-01T17:34:06.937Z,57.50
2023-05-01T17:36:33.583Z,56.50
2023-05-01T17:39:01.455Z,57.20
2023-05-01T17:41:28.123Z,56.00
2023-05-01T17:43:55.272Z,57.00
2023-05-01T17:46:22.100Z,57.50
2023-05-01T17:48:48.899Z,58.10
2023-05-01T17:51:15.554Z,57.50
2023-05-01T17:53:42.243Z,60.00
2023-05-01T17:56:09.086Z,60.60
2023-05-01T17:58:35.742Z,60.00
2023-05-01T18:01:03.637Z,63.00
2023-05-01T18:03:32.813Z,63.60
2023-05-01T18:05:59.645Z,63.70
2023-05-01T18:08:26.340Z,64.60
2023-05-01T18:10:53.080Z,65.30
2023-05-01T18:13:20.046Z,65.60
2023-05-01T18:15:46.698Z,65.90
2023-05-01T18:18:13.366Z,67.80
2023-05-01T18:20:40.052Z,67.20
2023-05-01T18:23:07.016Z,69.50
2023-05-01T18:25:33.773Z,68.70
2023-05-01T18:28:00.470Z,68.60
2023-05-01T18:30:27.140Z,69.90
2023-05-01T18:32:53.930Z,69.10
2023-05-01T18:35:20.652Z,70.20
2023-05-01T18:37:47.352Z,71.80
2023-05-01T18:40:14.116Z,72.90
2023-05-01T18:42:40.934Z,73.10
2023-05-01T18:45:07.640Z,73.90
2023-05-01T18:47:34.328Z,74.80
2023-05-01T18:50:01.155Z,74.70
2023-05-01T18:52:28.157Z,73.20
2023-05-01T18:54:55.048Z,72.50
2023-05-01T18:57:22.836Z,71.80
2023-05-01T18:59:49.657Z,71.60
2023-05-01T19:02:17.650Z,72.30
2023-05-01T19:07:17.473Z,72.90
2023-05-01T19:09:44.290Z,73.50
2023-05-01T19:12:11.116Z,75.10
2023-05-01T19:14:37.802Z,76.20
2023-05-01T19:17:04.568Z,75.90
2023-05-01T19:19:31.512Z,76.10
2023-05-01T19:22:01.066Z,76.80
2023-05-01T19:24:27.875Z,77.10
2023-05-01T19:26:54.658Z,77.30
2023-05-01T19:29:21.298Z,78.50
2023-05-01T19:31:48.386Z,79.10
2023-05-01T19:34:15.120Z,78.60
2023-05-01T19:36:41.832Z,79.40
2023-05-01T19:39:08.626Z,78.80
2023-05-01T19:41:35.363Z,81.20
2023-05-01T19:44:02.119Z,80.80
2023-05-01T19:46:28.973Z,81.60
2023-05-01T19:48:55.693Z,82.40
2023-05-01T19:51:22.443Z,83.90
2023-05-01T19:53:49.229Z,84.80
2023-05-01T19:56:15.904Z,87.20
2023-05-01T19:58:42.696Z,89.40
2023-05-01T20:01:11.892Z,89.60
2023-05-01T20:03:38.666Z,91.10
2023-05-01T20:06:06.491Z,90.80
2023-05-01T20:08:33.412Z,91.10
2023-05-01T20:11:00.194Z,92.60
2023-05-01T20:13:26.882Z,92.90
2023-05-01T20:15:53.636Z,91.80
2023-05-01T20:18:20.568Z,92.30
2023-05-01T20:20:47.414Z,92.10
2023-05-01T20:23:14.252Z,92.70
2023-05-01T20:25:41.102Z,93.30
2023-05-01T20:28:07.753Z,92.50
2023-05-01T20:30:34.573Z,94.10
2023-05-01T20:33:01.369Z,94.40
2023-05-01T20:35:28.167Z,95.30
2023-05-01T20:37:54.881Z,94.60
2023-05-01T20:40:21.744Z,95.50
2023-05-01T20:42:48.421Z,95.30
2023-05-01T20:45:15.139Z,95.90
2023-05-01T20:47:41.889Z,95.40
2023-05-01T20:50:08.706Z,95.50
2023-05-01T20:52:35.446Z,95.70
2023-05-01T20:55:02.500Z,95.50
2023-05-01T20:57:29.153Z,96.50
2023-05-01T20:59:56.626Z,95.00
2023-05-01T21:02:23.473Z,94.80
2023-05-01T21:04:54.559Z,95.20
2023-05-01T21:07:21.572Z,94.20
2023-05-01T21:09:48.433Z,94.80
2023-05-01T21:12:15.208Z,94.50
2023-05-01T21:14:41.973Z,94.60
2023-05-01T21:17:08.821Z,94.30
2023-05-01T21:19:35.692Z,94.20
2023-05-01T21:22:02.613Z,94.30
2023-05-01T21:24:30.454Z,93.50
2023-05-01T21:26:57.734Z,93.20
2023-05-01T21:29:24.442Z,93.40
2023-05-01T21:31:53.259Z,93.60
2023-05-01T21:34:19.912Z,94.10
2023-05-01T21:36:46.736Z,93.50
2023-05-01T21:39:15.508Z,94.20
2023-05-01T21:41:45.106Z,94.40
2023-05-01T21:44:11.931Z,94.40
2023-05-01T21:46:38.836Z,94.30
2023-05-01T21:49:05.745Z,94.30
2023-05-01T21:51:35.939Z,94.40
2023-05-01T21:54:02.848Z,94.20
2023-05-01T21:56:29.700Z,94.30
2023-05-01T21:58:56.468Z,94.30
2023-05-01T22:01:23.286Z,94.60
2023-05-01T22:03:50.501Z,95.20
2023-05-01T22:06:17.476Z,95.40
2023-05-01T22:08:44.275Z,95.40
2023-05-01T22:11:12.809Z,95.50
2023-05-01T22:13:39.583Z,95.50
2023-05-01T22:16:06.574Z,95.50
2023-05-01T22:18:33.309Z,95.50
2023-05-01T22:21:01.638Z,96.10
2023-05-01T22:23:28.410Z,95.50
2023-05-01T22:26:00.188Z,96.30
2023-05-01T22:28:27.107Z,96.40
2023-05-01T22:30:54.624Z,96.60
2023-05-01T22:33:24.762Z,96.90
2023-05-01T22:35:52.142Z,96.90
2023-05-01T22:38:18.973Z,96.80
2023-05-01T22:40:45.771Z,97.00
2023-05-01T22:43:12.686Z,96.70
2023-05-01T22:45:39.804Z,97.40
2023-05-01T22:48:06.838Z,97.60
2023-05-01T22:50:33.725Z,97.80
2023-05-01T22:53:00.898Z,98.30
2023-05-01T22:55:30.984Z,98.40
2023-05-01T22:57:57.956Z,98.90
2023-05-01T23:00:31.364Z,99.50
2023-05-01T23:02:58.265Z,99.70
2023-05-01T23:05:25.116Z,99.90
2023-05-01T23:07:52.037Z,99.90
2023-05-01T23:10:18.853Z,99.90
2023-05-01T23:12:46.034Z,99.90
2023-05-01T23:15:17.080Z,99.90
2023-05-01T23:17:44.321Z,99.90
2023-05-01T23:20:11.308Z,99.90
2023-05-01T23:22:38.470Z,99.90
2023-05-01T23:25:05.167Z,99.90
2023-05-01T23:27:31.912Z,99.90
2023-05-01T23:29:59.325Z,99.90
2023-05-01T23:32:27.030Z,99.90
2023-05-01T23:34:54.115Z,99.90
2023-05-01T23:37:20.926Z,99.90
2023-05-01T23:39:48.082Z,99.90
2023-05-01T23:42:14.834Z,99.90
2023-05-01T23:44:41.640Z,99.90
2023-05-01T23:47:10.096Z,99.90
2023-05-01T23:49:36.813Z,99.90
2023-05-01T23:52:03.414Z,99.90
2023-05-01T23:54:30.139Z,99.90
2023-05-01T23:56:56.827Z,99.90
2023-05-01T23:59:23.563Z,99.90
